createdAt,value
2024-03-05T00:00:31.036Z,0.00
2024-03-05T00:01:31.126Z,0.00
2024-03-05T00:02:31.031Z,0.00
2024-03-05T00:03:31.040Z,0.00
2024-03-05T00:04:31.118Z,0.00
2024-03-05T00:05:31.082Z,0.00
2024-03-05T00:06:30.970Z,0.00
2024-03-05T00:07:31.059Z,0.00
2024-03-05T00:08:30.969Z,0.00
2024-03-05T00:09:30.948Z,0.00
2024-03-05T00:10:30.975Z,0.00
2024-03-05T00:11:30.975Z,0.00
2024-03-05T00:12:30.921Z,0.00
2024-03-05T00:13:30.916Z,0.00
2024-03-05T00:14:30.881Z,0.00
2024-03-05T00:15:30.868Z,0.00
2024-03-05T00:16:30.906Z,0.00
2024-03-05T00:17:30.896Z,0.00
2024-03-05T00:18:30.837Z,0.00
2024-03-05T00:19:30.910Z,0.00
2024-03-05T00:20:30.839Z,0.00
2024-03-05T00:21:30.830Z,0.00
2024-03-05T00:22:30.836Z,0.00
2024-03-05T00:23:30.778Z,0.00
2024-03-05T00:24:30.776Z,0.00
2024-03-05T00:25:30.815Z,0.00
2024-03-05T00:26:30.769Z,0.00
2024-03-05T00:27:30.736Z,0.00
2024-03-05T00:28:30.762Z,0.00
2024-03-05T00:29:30.724Z,0.00
2024-03-05T00:30:30.720Z,0.00
2024-03-05T00:31:30.750Z,0.00
2024-03-05T00:32:30.722Z,0.00
2024-03-05T00:33:30.672Z,0.00
2024-03-05T00:34:30.710Z,0.00
2024-03-05T00:35:30.671Z,0.00
2024-03-05T00:36:30.667Z,0.00
2024-03-05T00:37:30.674Z,0.00
2024-03-05T00:38:33.749Z,0.00
2024-03-05T00:39:30.612Z,0.00
2024-03-05T00:40:30.654Z,0.00
2024-03-05T00:41:30.584Z,0.00
2024-03-05T00:42:30.583Z,0.00
2024-03-05T00:43:30.611Z,0.00
2024-03-05T00:44:30.578Z,0.00
2024-03-05T00:45:30.572Z,0.00
2024-03-05T00:46:30.589Z,0.00
2024-03-05T00:47:30.559Z,0.00
2024-03-05T00:48:30.521Z,0.00
2024-03-05T00:49:30.547Z,0.00
2024-03-05T00:50:30.497Z,0.00
2024-03-05T00:51:30.500Z,0.00
2024-03-05T00:52:30.511Z,0.00
2024-03-05T00:53:30.475Z,0.00
2024-03-05T00:54:30.510Z,0.00
2024-03-05T00:55:30.456Z,0.00
2024-03-05T00:56:30.427Z,0.00
2024-03-05T00:57:30.822Z,0.00
2024-03-05T00:58:30.443Z,0.00
2024-03-05T00:59:30.421Z,0.00
2024-03-05T01:00:30.389Z,0.00
2024-03-05T01:01:30.420Z,0.00
2024-03-05T01:02:30.402Z,0.00
2024-03-05T01:03:30.374Z,0.00
2024-03-05T01:04:30.380Z,0.00
2024-03-05T01:05:30.333Z,0.00
2024-03-05T01:06:30.371Z,0.00
2024-03-05T01:07:30.319Z,0.00
2024-03-05T01:08:30.349Z,0.00
2024-03-05T01:09:30.314Z,0.00
2024-03-05T01:10:30.337Z,0.00
2024-03-05T01:11:30.277Z,0.00
2024-03-05T01:12:30.277Z,0.00
2024-03-05T01:13:30.323Z,0.00
2024-03-05T01:14:30.235Z,0.00
2024-03-05T01:15:30.223Z,0.00
2024-03-05T01:16:30.252Z,0.00
2024-03-05T01:17:30.262Z,0.00
2024-03-05T01:18:30.204Z,0.00
2024-03-05T01:19:30.221Z,0.00
2024-03-05T01:20:30.173Z,0.00
2024-03-05T01:21:30.161Z,0.00
2024-03-05T01:22:30.213Z,0.00
2024-03-05T01:23:30.140Z,0.00
2024-03-05T01:24:30.150Z,0.00
2024-03-05T01:25:30.167Z,0.00
2024-03-05T01:26:30.151Z,0.00
2024-03-05T01:27:30.110Z,0.00
2024-03-05T01:28:30.094Z,0.00
2024-03-05T01:29:30.075Z,0.00
2024-03-05T01:30:30.074Z,0.00
2024-03-05T01:31:30.105Z,0.00
2024-03-05T01:32:30.070Z,0.00
2024-03-05T01:33:30.057Z,0.00
2024-03-05T01:34:30.090Z,0.00
2024-03-05T01:35:30.010Z,0.00
2024-03-05T01:36:30.021Z,0.00
2024-03-05T01:37:30.032Z,0.00
2024-03-05T01:38:29.981Z,0.00
2024-03-05T01:39:30.216Z,0.00
2024-03-05T01:40:30.123Z,0.00
2024-03-05T01:41:29.982Z,0.00
2024-03-05T01:42:29.950Z,0.00
2024-03-05T01:43:29.956Z,0.00
2024-03-05T01:44:29.918Z,0.00
2024-03-05T01:45:29.958Z,0.00
2024-03-05T01:46:29.948Z,0.00
2024-03-05T01:47:29.926Z,0.00
2024-03-05T01:48:29.893Z,0.00
2024-03-05T01:49:29.869Z,0.00
2024-03-05T01:50:29.868Z,0.00
2024-03-05T01:51:29.840Z,0.00
2024-03-05T01:52:29.841Z,0.00
2024-03-05T01:53:29.815Z,0.00
2024-03-05T01:54:29.816Z,0.00
2024-03-05T01:55:29.852Z,0.00
2024-03-05T01:56:29.948Z,0.00
2024-03-05T01:57:29.809Z,0.00
2024-03-05T01:58:29.816Z,0.00
2024-03-05T01:59:29.765Z,0.00
2024-03-05T02:00:29.793Z,0.00
2024-03-05T02:01:29.823Z,0.00
2024-03-05T02:02:29.725Z,0.00
2024-03-05T02:03:29.713Z,0.00
2024-03-05T02:04:29.748Z,0.00
2024-03-05T02:05:29.691Z,0.00
2024-03-05T02:06:29.682Z,0.00
2024-03-05T02:07:29.694Z,0.00
2024-03-05T02:08:29.660Z,0.00
2024-03-05T02:09:29.691Z,0.00
2024-03-05T02:10:29.660Z,0.00
2024-03-05T02:11:29.659Z,0.00
2024-03-05T02:12:29.650Z,0.00
2024-03-05T02:13:29.655Z,0.00
2024-03-05T02:14:29.622Z,0.00
2024-03-05T02:15:29.577Z,0.00
2024-03-05T02:16:29.592Z,0.00
2024-03-05T02:17:29.580Z,0.00
2024-03-05T02:18:29.570Z,0.00
2024-03-05T02:19:29.578Z,0.00
2024-03-05T02:20:29.533Z,0.00
2024-03-05T02:21:29.515Z,0.00
2024-03-05T02:22:29.604Z,0.00
2024-03-05T02:23:29.525Z,0.00
2024-03-05T02:24:29.502Z,0.00
2024-03-05T02:25:29.553Z,0.00
2024-03-05T02:26:29.471Z,0.00
2024-03-05T02:27:34.737Z,0.00
2024-03-05T02:28:30.561Z,0.00
2024-03-05T02:29:29.428Z,0.00
2024-03-05T02:30:29.423Z,0.00
2024-03-05T02:31:29.441Z,0.00
2024-03-05T02:32:29.428Z,0.00
2024-03-05T02:33:29.405Z,0.00
2024-03-05T02:34:29.431Z,0.00
2024-03-05T02:35:29.367Z,0.00
2024-03-05T02:36:29.353Z,0.00
2024-03-05T02:37:29.358Z,0.00
2024-03-05T02:38:29.328Z,0.00
2024-03-05T02:39:29.318Z,0.00
2024-03-05T02:40:29.331Z,0.00
2024-03-05T02:41:29.320Z,0.00
2024-03-05T02:42:29.314Z,0.00
2024-03-05T02:43:29.305Z,0.00
2024-03-05T02:44:29.285Z,0.00
2024-03-05T02:45:29.263Z,0.00
2024-03-05T02:46:29.299Z,0.00
2024-03-05T02:47:29.299Z,0.00
2024-03-05T02:48:29.227Z,0.00
2024-03-05T02:49:29.243Z,0.00
2024-03-05T02:50:29.205Z,0.00
2024-03-05T02:51:29.237Z,0.00
2024-03-05T02:52:29.208Z,0.00
2024-03-05T02:53:29.190Z,0.00
2024-03-05T02:54:29.160Z,0.00
2024-03-05T02:55:29.203Z,0.00
2024-03-05T02:56:29.155Z,0.00
2024-03-05T02:57:29.120Z,0.00
2024-03-05T02:58:29.179Z,0.00
2024-03-05T02:59:29.105Z,0.00
2024-03-05T03:00:29.202Z,0.00
2024-03-05T03:01:29.139Z,0.00
2024-03-05T03:02:29.069Z,0.00
2024-03-05T03:03:29.062Z,0.00
2024-03-05T03:04:29.146Z,0.00
2024-03-05T03:05:29.059Z,0.00
2024-03-05T03:06:36.217Z,0.00
2024-03-05T03:07:29.048Z,0.00
2024-03-05T03:08:29.053Z,0.00
2024-03-05T03:09:28.994Z,0.00
2024-03-05T03:10:29.023Z,0.00
2024-03-05T03:11:29.024Z,0.00
2024-03-05T03:12:28.977Z,0.00
2024-03-05T03:13:28.972Z,0.00
2024-03-05T03:14:28.951Z,0.00
2024-03-05T03:15:28.943Z,0.00
2024-03-05T03:16:29.010Z,0.00
2024-03-05T03:17:30.237Z,0.00
2024-03-05T03:18:28.908Z,0.00
2024-03-05T03:19:29.031Z,0.00
2024-03-05T03:20:28.890Z,0.00
2024-03-05T03:21:28.891Z,0.00
2024-03-05T03:22:28.920Z,0.00
2024-03-05T03:23:28.974Z,0.00
2024-03-05T03:24:28.962Z,0.00
2024-03-05T03:25:28.977Z,0.00
2024-03-05T03:26:28.832Z,0.00
2024-03-05T03:27:28.794Z,0.00
2024-03-05T03:28:28.817Z,0.00
2024-03-05T03:29:28.786Z,0.00
2024-03-05T03:30:28.761Z,0.00
2024-03-05T03:31:28.767Z,0.00
2024-03-05T03:32:28.791Z,0.00
2024-03-05T03:33:28.748Z,0.00
2024-03-05T03:34:28.732Z,0.00
2024-03-05T03:35:28.726Z,0.00
2024-03-05T03:36:28.699Z,0.00
2024-03-05T03:37:28.715Z,0.00
2024-03-05T03:38:28.720Z,0.00
2024-03-05T03:39:28.662Z,0.00
2024-03-05T03:40:28.668Z,0.00
2024-03-05T03:41:28.649Z,0.00
2024-03-05T03:42:28.657Z,0.00
2024-03-05T03:43:28.667Z,0.00
2024-03-05T03:44:28.617Z,0.00
2024-03-05T03:45:28.603Z,0.00
2024-03-05T03:46:28.630Z,0.00
2024-03-05T03:47:28.613Z,0.00
2024-03-05T03:48:28.595Z,0.00
2024-03-05T03:49:28.575Z,0.00
2024-03-05T03:50:28.553Z,0.00
2024-03-05T03:51:28.537Z,0.00
2024-03-05T03:52:28.592Z,0.00
2024-03-05T03:53:28.521Z,0.00
2024-03-05T03:54:28.507Z,0.00
2024-03-05T03:55:28.530Z,0.00
2024-03-05T03:56:28.522Z,0.00
2024-03-05T03:57:28.487Z,0.00
2024-03-05T03:58:28.479Z,0.00
2024-03-05T03:59:28.456Z,0.00
2024-03-05T04:00:28.437Z,0.00
2024-03-05T04:01:28.475Z,0.00
2024-03-05T04:02:28.419Z,0.00
2024-03-05T04:03:28.408Z,0.00
2024-03-05T04:04:28.431Z,0.00
2024-03-05T04:05:28.412Z,0.00
2024-03-05T04:06:28.395Z,0.00
2024-03-05T04:07:28.456Z,0.00
2024-03-05T04:08:28.355Z,0.00
2024-03-05T04:09:28.351Z,0.00
2024-03-05T04:10:28.382Z,0.00
2024-03-05T04:11:28.414Z,0.00
2024-03-05T04:12:28.317Z,0.00
2024-03-05T04:13:28.346Z,0.00
2024-03-05T04:14:28.290Z,0.00
2024-03-05T04:15:28.310Z,0.00
2024-03-05T04:16:28.318Z,0.00
2024-03-05T04:17:28.294Z,0.00
2024-03-05T04:18:28.246Z,0.00
2024-03-05T04:19:28.274Z,0.00
2024-03-05T04:20:28.409Z,0.00
2024-03-05T04:21:28.228Z,0.00
2024-03-05T04:22:28.250Z,0.00
2024-03-05T04:23:28.195Z,0.00
2024-03-05T04:24:28.200Z,0.00
2024-03-05T04:25:28.227Z,0.00
2024-03-05T04:26:28.340Z,0.00
2024-03-05T04:27:28.235Z,0.00
2024-03-05T04:28:28.233Z,0.00
2024-03-05T04:29:28.147Z,0.00
2024-03-05T04:30:28.159Z,0.00
2024-03-05T04:31:28.192Z,0.00
2024-03-05T04:32:28.722Z,0.00
2024-03-05T04:33:28.140Z,0.00
2024-03-05T04:34:28.121Z,0.00
2024-03-05T04:35:28.067Z,0.00
2024-03-05T04:36:28.073Z,0.00
2024-03-05T04:37:28.070Z,0.00
2024-03-05T04:38:28.051Z,0.00
2024-03-05T04:39:28.044Z,0.00
2024-03-05T04:40:28.292Z,0.00
2024-03-05T04:41:27.998Z,0.00
2024-03-05T04:42:27.987Z,0.00
2024-03-05T04:43:28.015Z,0.00
2024-03-05T04:44:27.971Z,0.00
2024-03-05T04:45:27.955Z,0.00
2024-03-05T04:46:28.023Z,0.00
2024-03-05T04:47:27.982Z,0.00
2024-03-05T04:48:27.962Z,0.00
2024-03-05T04:49:28.021Z,0.00
2024-03-05T04:50:27.906Z,0.00
2024-03-05T04:51:27.891Z,0.00
2024-03-05T04:52:29.359Z,0.00
2024-03-05T04:53:27.898Z,0.00
2024-03-05T04:54:27.871Z,0.00
2024-03-05T04:55:27.905Z,0.00
2024-03-05T04:56:27.829Z,0.00
2024-03-05T04:57:27.843Z,0.00
2024-03-05T04:58:27.867Z,0.00
2024-03-05T04:59:27.808Z,0.00
2024-03-05T05:00:27.795Z,0.00
2024-03-05T05:01:27.907Z,0.00
2024-03-05T05:02:27.790Z,0.00
2024-03-05T05:03:27.780Z,0.00
2024-03-05T05:04:27.769Z,0.00
2024-03-05T05:05:28.090Z,0.00
2024-03-05T05:06:27.750Z,0.00
2024-03-05T05:07:27.749Z,0.00
2024-03-05T05:08:27.758Z,0.00
2024-03-05T05:09:27.703Z,0.00
2024-03-05T05:10:27.874Z,0.00
2024-03-05T05:11:27.812Z,0.00
2024-03-05T05:12:27.684Z,0.00
2024-03-05T05:13:27.689Z,0.00
2024-03-05T05:14:27.673Z,0.00
2024-03-05T05:15:27.695Z,0.00
2024-03-05T05:16:27.732Z,0.00
2024-03-05T05:17:27.660Z,0.00
2024-03-05T05:18:27.606Z,0.00
2024-03-05T05:19:27.611Z,0.00
2024-03-05T05:20:27.613Z,0.00
2024-03-05T05:21:27.609Z,0.00
2024-03-05T05:22:27.645Z,0.00
2024-03-05T05:23:27.559Z,0.00
2024-03-05T05:24:27.639Z,0.00
2024-03-05T05:25:27.610Z,0.00
2024-03-05T05:26:27.524Z,0.00
2024-03-05T05:27:27.515Z,0.00
2024-03-05T05:28:27.521Z,0.00
2024-03-05T05:29:36.913Z,0.00
2024-03-05T05:30:28.519Z,0.00
2024-03-05T05:31:27.579Z,0.00
2024-03-05T05:32:27.479Z,0.00
2024-03-05T05:33:27.448Z,0.00
2024-03-05T05:34:27.470Z,0.00
2024-03-05T05:35:27.448Z,0.00
2024-03-05T05:36:27.418Z,0.00
2024-03-05T05:37:27.487Z,0.00
2024-03-05T05:38:27.419Z,0.00
2024-03-05T05:39:27.424Z,5.62
2024-03-05T05:40:27.461Z,5.62
2024-03-05T05:41:27.364Z,5.62
2024-03-05T05:42:27.362Z,5.62
2024-03-05T05:43:27.353Z,5.62
2024-03-05T05:44:27.360Z,5.62
2024-03-05T05:45:27.340Z,11.25
2024-03-05T05:46:27.370Z,11.25
2024-03-05T05:47:27.405Z,11.25
2024-03-05T05:48:29.501Z,11.25
2024-03-05T05:49:27.386Z,16.88
2024-03-05T05:50:27.266Z,16.88
2024-03-05T05:51:27.257Z,16.88
2024-03-05T05:52:27.242Z,16.88
2024-03-05T05:53:27.237Z,22.50
2024-03-05T05:54:27.221Z,22.50
2024-03-05T05:55:27.756Z,28.12
2024-03-05T05:56:27.214Z,28.12
2024-03-05T05:57:27.190Z,28.12
2024-03-05T05:58:27.422Z,33.75
2024-03-05T05:59:27.203Z,33.75
2024-03-05T06:00:27.192Z,39.38
2024-03-05T06:01:27.285Z,39.38
2024-03-05T06:02:27.226Z,39.38
2024-03-05T06:03:27.194Z,45.00
2024-03-05T06:04:27.204Z,50.62
2024-03-05T06:05:27.101Z,56.25
2024-03-05T06:06:27.127Z,61.88
2024-03-05T06:07:27.271Z,61.88
2024-03-05T06:08:27.068Z,61.88
2024-03-05T06:09:27.071Z,67.50
2024-03-05T06:10:27.051Z,78.75
2024-03-05T06:11:27.086Z,84.38
2024-03-05T06:12:27.097Z,90.00
2024-03-05T06:13:27.062Z,101.25
2024-03-05T06:14:27.004Z,95.62
2024-03-05T06:15:26.999Z,90.00
2024-03-05T06:16:27.015Z,95.62
2024-03-05T06:17:27.021Z,118.12
2024-03-05T06:18:26.974Z,129.38
2024-03-05T06:19:26.996Z,129.38
2024-03-05T06:20:26.950Z,135.00
2024-03-05T06:21:27.236Z,151.88
2024-03-05T06:22:30.268Z,151.88
2024-03-05T06:23:27.956Z,157.50
2024-03-05T06:24:26.937Z,163.12
2024-03-05T06:25:26.911Z,168.75
2024-03-05T06:26:26.908Z,174.38
2024-03-05T06:27:26.880Z,180.00
2024-03-05T06:28:26.938Z,180.00
2024-03-05T06:29:26.854Z,174.38
2024-03-05T06:30:26.968Z,168.75
2024-03-05T06:31:28.490Z,174.38
2024-03-05T06:32:26.854Z,219.38
2024-03-05T06:33:26.804Z,241.88
2024-03-05T06:34:26.821Z,258.75
2024-03-05T06:35:26.790Z,258.75
2024-03-05T06:36:26.791Z,258.75
2024-03-05T06:37:26.840Z,270.00
2024-03-05T06:38:26.753Z,275.62
2024-03-05T06:39:26.737Z,292.50
2024-03-05T06:40:26.834Z,315.00
2024-03-05T06:41:26.730Z,331.88
2024-03-05T06:42:26.708Z,337.50
2024-03-05T06:43:26.715Z,348.75
2024-03-05T06:44:26.969Z,354.38
2024-03-05T06:45:26.726Z,382.50
2024-03-05T06:46:26.701Z,399.38
2024-03-05T06:47:26.662Z,405.00
2024-03-05T06:48:26.705Z,410.62
2024-03-05T06:49:26.718Z,438.75
2024-03-05T06:50:26.633Z,461.25
2024-03-05T06:51:26.616Z,472.50
2024-03-05T06:52:26.623Z,472.50
2024-03-05T06:53:26.587Z,495.00
2024-03-05T06:54:26.607Z,517.50
2024-03-05T06:55:26.579Z,528.75
2024-03-05T06:56:26.562Z,528.75
2024-03-05T06:57:26.576Z,540.00
2024-03-05T06:58:26.604Z,551.25
2024-03-05T06:59:26.536Z,568.12
2024-03-05T07:00:26.532Z,579.38
2024-03-05T07:01:26.555Z,601.88
2024-03-05T07:02:26.525Z,618.75
2024-03-05T07:03:26.499Z,630.00
2024-03-05T07:04:26.545Z,663.75
2024-03-05T07:05:26.461Z,675.00
2024-03-05T07:06:26.450Z,680.62
2024-03-05T07:07:26.460Z,691.88
2024-03-05T07:08:28.755Z,697.50
2024-03-05T07:09:26.414Z,708.75
2024-03-05T07:10:26.407Z,742.50
2024-03-05T07:11:26.411Z,759.38
2024-03-05T07:12:26.395Z,776.25
2024-03-05T07:13:26.416Z,793.12
2024-03-05T07:14:26.370Z,804.38
2024-03-05T07:15:26.357Z,821.25
2024-03-05T07:16:26.475Z,838.12
2024-03-05T07:17:26.380Z,843.75
2024-03-05T07:18:26.327Z,843.75
2024-03-05T07:19:26.343Z,860.62
2024-03-05T07:20:26.290Z,888.75
2024-03-05T07:21:26.293Z,928.12
2024-03-05T07:22:26.318Z,928.12
2024-03-05T07:23:26.270Z,950.62
2024-03-05T07:24:26.256Z,984.38
2024-03-05T07:25:26.269Z,1012.50
2024-03-05T07:26:26.253Z,1029.38
2024-03-05T07:27:26.238Z,1046.25
2024-03-05T07:28:26.289Z,1046.25
2024-03-05T07:29:26.209Z,1051.88
2024-03-05T07:30:26.196Z,1063.12
2024-03-05T07:31:26.211Z,1085.62
2024-03-05T07:32:26.238Z,1046.25
2024-03-05T07:33:26.173Z,1074.38
2024-03-05T07:34:26.157Z,1136.25
2024-03-05T07:35:26.153Z,1164.38
2024-03-05T07:36:26.139Z,1192.50
2024-03-05T07:37:26.134Z,1198.12
2024-03-05T07:38:26.103Z,1215.00
2024-03-05T07:39:26.129Z,1231.88
2024-03-05T07:40:26.112Z,1265.62
2024-03-05T07:41:30.635Z,1248.75
2024-03-05T07:42:27.058Z,1310.62
2024-03-05T07:43:26.062Z,1361.25
2024-03-05T07:44:26.035Z,1366.88
2024-03-05T07:45:26.046Z,1366.88
2024-03-05T07:46:26.043Z,1366.88
2024-03-05T07:47:26.022Z,1400.62
2024-03-05T07:48:26.017Z,1451.25
2024-03-05T07:49:26.000Z,1479.38
2024-03-05T07:50:25.990Z,1507.50
2024-03-05T07:51:29.182Z,1518.75
2024-03-05T07:52:26.995Z,1473.75
2024-03-05T07:53:25.942Z,1530.00
2024-03-05T07:54:25.925Z,1524.38
2024-03-05T07:55:31.743Z,1524.38
2024-03-05T07:56:26.976Z,1558.12
2024-03-05T07:57:25.896Z,1580.62
2024-03-05T07:58:25.901Z,1614.38
2024-03-05T07:59:25.904Z,1631.25
2024-03-05T08:00:25.874Z,1608.75
2024-03-05T08:01:25.940Z,1608.75
2024-03-05T08:02:25.840Z,1631.25
2024-03-05T08:03:25.839Z,1681.88
2024-03-05T08:04:25.881Z,1755.00
2024-03-05T08:05:25.833Z,1715.62
2024-03-05T08:06:25.797Z,1687.50
2024-03-05T08:07:25.809Z,1732.50
2024-03-05T08:08:25.804Z,1783.12
2024-03-05T08:09:25.824Z,1783.12
2024-03-05T08:10:25.889Z,1738.12
2024-03-05T08:11:25.805Z,1800.00
2024-03-05T08:12:25.734Z,1878.75
2024-03-05T08:13:25.739Z,1839.38
2024-03-05T08:14:25.717Z,1873.12
2024-03-05T08:15:25.901Z,1867.50
2024-03-05T08:16:25.747Z,1822.50
2024-03-05T08:17:25.688Z,1878.75
2024-03-05T08:18:25.683Z,1951.88
2024-03-05T08:19:25.699Z,1974.38
2024-03-05T08:20:25.715Z,1996.88
2024-03-05T08:21:25.626Z,1968.75
2024-03-05T08:22:25.736Z,1980.00
2024-03-05T08:23:25.630Z,1946.25
2024-03-05T08:24:25.611Z,1895.62
2024-03-05T08:25:25.720Z,1963.12
2024-03-05T08:26:25.580Z,2041.88
2024-03-05T08:27:25.571Z,2070.00
2024-03-05T08:28:25.725Z,2041.88
2024-03-05T08:29:25.549Z,2002.50
2024-03-05T08:30:25.544Z,2041.88
2024-03-05T08:31:25.546Z,2120.62
2024-03-05T08:32:25.546Z,2210.62
2024-03-05T08:33:25.677Z,2205.00
2024-03-05T08:34:25.523Z,2160.00
2024-03-05T08:35:25.480Z,2137.50
2024-03-05T08:36:25.487Z,2182.50
2024-03-05T08:37:25.487Z,2278.12
2024-03-05T08:38:25.475Z,2244.38
2024-03-05T08:39:25.760Z,2176.88
2024-03-05T08:40:25.504Z,2233.12
2024-03-05T08:41:25.414Z,2137.50
2024-03-05T08:42:25.415Z,1968.75
2024-03-05T08:43:25.433Z,1940.62
2024-03-05T08:44:25.421Z,2070.00
2024-03-05T08:45:25.413Z,2053.12
2024-03-05T08:46:25.409Z,1940.62
2024-03-05T08:47:25.366Z,1923.75
2024-03-05T08:48:25.347Z,1113.75
2024-03-05T08:49:25.367Z,1091.25
2024-03-05T08:50:25.343Z,1732.50
2024-03-05T08:51:25.329Z,1710.00
2024-03-05T08:52:25.350Z,1732.50
2024-03-05T08:53:25.289Z,1861.88
2024-03-05T08:54:25.287Z,2053.12
2024-03-05T08:55:25.278Z,1901.25
2024-03-05T08:56:25.272Z,1951.88
2024-03-05T08:57:25.248Z,2081.25
2024-03-05T08:58:25.256Z,2070.00
2024-03-05T08:59:25.222Z,1980.00
2024-03-05T09:01:25.311Z,2143.12
2024-03-05T09:02:25.257Z,2210.62
2024-03-05T09:03:25.218Z,2413.12
2024-03-05T09:04:25.202Z,2278.12
2024-03-05T09:05:25.204Z,2070.00
2024-03-05T09:06:25.177Z,1901.25
2024-03-05T09:07:25.156Z,1811.25
2024-03-05T09:08:25.156Z,1940.62
2024-03-05T09:09:25.116Z,1833.75
2024-03-05T09:10:25.172Z,1974.38
2024-03-05T09:11:25.160Z,2070.00
2024-03-05T09:12:25.084Z,1867.50
2024-03-05T09:13:25.090Z,1586.25
2024-03-05T09:14:25.064Z,1344.38
2024-03-05T09:15:25.080Z,1164.38
2024-03-05T09:16:25.066Z,1141.88
2024-03-05T09:17:25.029Z,1203.75
2024-03-05T09:18:25.168Z,607.50
2024-03-05T09:19:25.135Z,613.12
2024-03-05T09:20:25.021Z,2345.62
2024-03-05T09:21:25.006Z,1861.88
2024-03-05T09:22:25.007Z,1833.75
2024-03-05T09:23:24.990Z,1951.88
2024-03-05T09:24:24.995Z,1912.50
2024-03-05T09:25:24.973Z,2244.38
2024-03-05T09:26:24.941Z,2278.12
2024-03-05T09:27:24.938Z,1732.50
2024-03-05T09:28:24.958Z,2503.12
2024-03-05T09:29:24.932Z,2806.88
2024-03-05T09:30:24.906Z,2806.88
2024-03-05T09:31:24.927Z,2863.12
2024-03-05T09:32:24.898Z,2778.75
2024-03-05T09:33:24.889Z,2373.75
2024-03-05T09:34:24.919Z,2542.50
2024-03-05T09:35:24.845Z,2514.38
2024-03-05T09:36:24.837Z,2587.50
2024-03-05T09:37:24.844Z,2548.12
2024-03-05T09:38:24.825Z,2424.38
2024-03-05T09:39:24.791Z,2508.75
2024-03-05T09:40:24.888Z,2424.38
2024-03-05T09:41:24.776Z,2469.38
2024-03-05T09:42:24.758Z,2812.50
2024-03-05T09:43:24.847Z,2992.50
2024-03-05T09:44:24.739Z,2885.62
2024-03-05T09:45:24.740Z,3088.12
2024-03-05T09:46:24.757Z,3127.50
2024-03-05T09:47:24.752Z,3037.50
2024-03-05T09:48:24.737Z,3076.88
2024-03-05T09:49:25.828Z,3172.50
2024-03-05T09:50:24.709Z,3015.00
2024-03-05T09:51:24.712Z,2840.62
2024-03-05T09:52:24.708Z,2835.00
2024-03-05T09:53:24.638Z,2964.38
2024-03-05T09:54:24.726Z,3144.38
2024-03-05T09:55:24.696Z,3071.25
2024-03-05T09:56:24.667Z,3110.62
2024-03-05T09:57:24.683Z,2733.75
2024-03-05T09:58:24.704Z,2947.50
2024-03-05T09:59:24.628Z,2992.50
2024-03-05T10:00:24.718Z,3015.00
2024-03-05T10:01:24.743Z,3060.00
2024-03-05T10:02:27.261Z,3121.88
2024-03-05T10:03:24.549Z,3082.50
2024-03-05T10:04:24.555Z,2739.38
2024-03-05T10:05:24.583Z,1923.75
2024-03-05T10:06:24.538Z,2913.75
2024-03-05T10:07:24.533Z,2913.75
2024-03-05T10:08:24.521Z,2930.62
2024-03-05T10:09:25.942Z,2851.88
2024-03-05T10:10:24.579Z,2908.12
2024-03-05T10:11:24.605Z,2992.50
2024-03-05T10:12:24.509Z,3020.62
2024-03-05T10:13:24.548Z,2986.88
2024-03-05T10:14:24.428Z,3003.75
2024-03-05T10:15:24.541Z,3076.88
2024-03-05T10:16:24.450Z,3121.88
2024-03-05T10:17:24.445Z,3116.25
2024-03-05T10:18:24.390Z,3155.62
2024-03-05T10:19:24.431Z,3178.12
2024-03-05T10:20:24.383Z,2992.50
2024-03-05T10:21:24.367Z,2986.88
2024-03-05T10:22:24.474Z,3110.62
2024-03-05T10:23:25.867Z,3105.00
2024-03-05T10:24:24.356Z,3099.38
2024-03-05T10:25:24.351Z,3150.00
2024-03-05T10:26:24.307Z,3211.88
2024-03-05T10:27:24.296Z,2154.38
2024-03-05T10:28:24.352Z,3043.12
2024-03-05T10:29:24.287Z,3150.00
2024-03-05T10:30:24.307Z,3189.38
2024-03-05T10:31:24.315Z,3161.25
2024-03-05T10:32:24.248Z,2913.75
2024-03-05T10:33:24.237Z,2986.88
2024-03-05T10:34:24.272Z,2863.12
2024-03-05T10:35:24.214Z,630.00
2024-03-05T10:36:24.237Z,528.75
2024-03-05T10:37:24.211Z,641.25
2024-03-05T10:38:24.194Z,1018.12
2024-03-05T10:39:24.188Z,646.88
2024-03-05T10:40:24.198Z,1653.75
2024-03-05T10:41:26.739Z,810.00
2024-03-05T10:42:25.146Z,410.62
2024-03-05T10:43:24.146Z,382.50
2024-03-05T10:44:24.142Z,534.38
2024-03-05T10:45:24.106Z,2086.88
2024-03-05T10:46:24.147Z,298.12
2024-03-05T10:47:25.887Z,826.88
2024-03-05T10:48:24.123Z,348.75
2024-03-05T10:49:24.108Z,405.00
2024-03-05T10:50:24.056Z,444.38
2024-03-05T10:51:24.049Z,483.75
2024-03-05T10:52:24.079Z,478.12
2024-03-05T10:53:24.039Z,478.12
2024-03-05T10:54:24.016Z,450.00
2024-03-05T10:55:24.041Z,410.62
2024-03-05T10:56:29.426Z,382.50
2024-03-05T10:57:25.002Z,376.88
2024-03-05T10:58:24.005Z,382.50
2024-03-05T10:59:23.967Z,393.75
2024-03-05T11:00:23.974Z,371.25
2024-03-05T11:01:24.012Z,360.00
2024-03-05T11:02:24.024Z,348.75
2024-03-05T11:03:23.918Z,348.75
2024-03-05T11:04:23.927Z,348.75
2024-03-05T11:05:23.923Z,354.38
2024-03-05T11:06:23.889Z,331.88
2024-03-05T11:07:23.933Z,320.62
2024-03-05T11:08:23.875Z,331.88
2024-03-05T11:09:23.847Z,343.12
2024-03-05T11:10:23.891Z,315.00
2024-03-05T11:11:24.012Z,303.75
2024-03-05T11:12:23.827Z,292.50
2024-03-05T11:13:23.854Z,298.12
2024-03-05T11:14:23.796Z,309.38
2024-03-05T11:15:23.786Z,320.62
2024-03-05T11:16:23.833Z,331.88
2024-03-05T11:17:23.804Z,331.88
2024-03-05T11:18:23.757Z,337.50
2024-03-05T11:19:23.767Z,337.50
2024-03-05T11:20:23.738Z,309.38
2024-03-05T11:21:23.748Z,303.75
2024-03-05T11:22:24.040Z,326.25
2024-03-05T11:23:23.694Z,354.38
2024-03-05T11:24:23.712Z,354.38
2024-03-05T11:25:23.702Z,337.50
2024-03-05T11:26:23.712Z,337.50
2024-03-05T11:27:23.678Z,331.88
2024-03-05T11:28:23.671Z,320.62
2024-03-05T11:29:23.664Z,303.75
2024-03-05T11:30:23.680Z,309.38
2024-03-05T11:31:23.642Z,315.00
2024-03-05T11:32:23.626Z,315.00
2024-03-05T11:33:23.636Z,303.75
2024-03-05T11:34:23.601Z,270.00
2024-03-05T11:35:23.577Z,247.50
2024-03-05T11:36:23.637Z,241.88
2024-03-05T11:37:23.573Z,219.38
2024-03-05T11:38:23.530Z,230.62
2024-03-05T11:39:23.517Z,236.25
2024-03-05T11:40:23.908Z,236.25
2024-03-05T11:41:23.506Z,230.62
2024-03-05T11:42:23.510Z,236.25
2024-03-05T11:43:23.507Z,247.50
2024-03-05T11:44:23.483Z,264.38
2024-03-05T11:45:23.486Z,258.75
2024-03-05T11:46:23.483Z,241.88
2024-03-05T11:47:23.506Z,230.62
2024-03-05T11:48:23.454Z,241.88
2024-03-05T11:49:23.458Z,241.88
2024-03-05T11:50:23.402Z,236.25
2024-03-05T11:51:23.391Z,236.25
2024-03-05T11:52:23.473Z,230.62
2024-03-05T11:53:23.379Z,230.62
2024-03-05T11:54:25.272Z,241.88
2024-03-05T11:55:23.416Z,236.25
2024-03-05T11:56:23.337Z,230.62
2024-03-05T11:57:23.326Z,202.50
2024-03-05T11:58:23.363Z,196.88
2024-03-05T11:59:23.313Z,196.88
2024-03-05T12:00:23.289Z,191.25
2024-03-05T12:01:23.433Z,185.62
2024-03-05T12:02:23.327Z,191.25
2024-03-05T12:03:23.273Z,208.12
2024-03-05T12:04:23.318Z,225.00
2024-03-05T12:05:23.328Z,225.00
2024-03-05T12:06:23.226Z,208.12
2024-03-05T12:07:23.238Z,202.50
2024-03-05T12:08:23.216Z,213.75
2024-03-05T12:09:23.203Z,225.00
2024-03-05T12:10:23.228Z,247.50
2024-03-05T12:11:23.281Z,247.50
2024-03-05T12:12:23.161Z,253.12
2024-03-05T12:13:23.208Z,253.12
2024-03-05T12:14:23.137Z,247.50
2024-03-05T12:15:23.137Z,241.88
2024-03-05T12:16:23.144Z,241.88
2024-03-05T12:17:23.118Z,236.25
2024-03-05T12:18:23.108Z,230.62
2024-03-05T12:19:23.099Z,208.12
2024-03-05T12:20:23.106Z,202.50
2024-03-05T12:21:24.560Z,202.50
2024-03-05T12:22:23.095Z,208.12
2024-03-05T12:23:40.799Z,208.12
2024-03-05T12:24:24.047Z,208.12
2024-03-05T12:25:23.041Z,196.88
2024-03-05T12:26:23.014Z,191.25
2024-03-05T12:27:23.012Z,180.00
2024-03-05T12:28:23.020Z,174.38
2024-03-05T12:29:22.992Z,168.75
2024-03-05T12:30:25.499Z,163.12
2024-03-05T12:31:22.976Z,163.12
2024-03-05T12:32:23.296Z,163.12
2024-03-05T12:33:22.934Z,163.12
2024-03-05T12:34:22.973Z,163.12
2024-03-05T12:35:22.913Z,163.12
2024-03-05T12:36:22.944Z,157.50
2024-03-05T12:37:22.956Z,151.88
2024-03-05T12:38:23.014Z,151.88
2024-03-05T12:39:22.897Z,157.50
2024-03-05T12:40:22.914Z,163.12
2024-03-05T12:41:22.859Z,163.12
2024-03-05T12:42:22.850Z,163.12
2024-03-05T12:43:22.854Z,168.75
2024-03-05T12:44:22.847Z,174.38
2024-03-05T12:45:22.817Z,185.62
2024-03-05T12:46:22.857Z,174.38